Time;durP1;ratioP1;P1;durP2;ratioP2;P2;SDS_P1;SDS_P2;PMS_P1;PMS_P2;Temp;Humidity;BMP_temperature;BMP_pressure;BME280_temperature;BME280_humidity;BME280_pressure;Samples;Min_cycle;Max_cycle;Signal;HPM_P1;HPM_P2
2023/07/31 00:01:34;;;;;;;3.42;3.20;;;;;;;22.22;62.75;94557.84;5115806;28;20202;-70
2023/07/31 00:06:53;;;;;;;3.38;3.08;;;;;;;22.16;62.71;94570.84;5115540;28;20270;-69
2023/07/31 00:09:20;;;;;;;3.28;3.08;;;;;;;22.10;62.82;94562.91;5116091;28;20192;-69
2023/07/31 00:11:48;;;;;;;3.22;3.03;;;;;;;22.09;63.02;94574.59;5114611;28;20210;-69
2023/07/31 00:14:19;;;;;;;3.50;3.20;;;;;;;22.06;63.71;94567.84;5115275;28;20244;-69
2023/07/31 00:16:49;;;;;;;3.63;3.33;;;;;;;21.96;65.22;94566.09;5115642;28;20698;-69
2023/07/31 00:19:17;;;;;;;3.85;3.55;;;;;;;21.91;66.61;94561.00;5115721;28;20613;-69
2023/07/31 00:22:22;;;;;;;4.20;3.90;;;;;;;21.82;67.35;94560.81;5115800;28;20548;-69
2023/07/31 00:25:27;;;;;;;3.90;3.63;;;;;;;21.73;68.45;94553.00;5056579;28;20331;-69
2023/07/31 00:28:35;;;;;;;3.70;3.40;;;;;;;21.71;68.43;94549.06;5073400;28;20275;-69
2023/07/31 00:31:40;;;;;;;4.20;3.90;;;;;;;21.66;68.58;94530.75;5072982;28;20216;-69
2023/07/31 00:34:49;;;;;;;3.95;3.70;;;;;;;21.66;68.82;94529.94;5056998;28;20208;-69
2023/07/31 00:37:54;;;;;;;4.28;3.97;;;;;;;21.58;68.85;94518.91;5056714;28;20252;-69
2023/07/31 00:41:00;;;;;;;5.15;4.75;;;;;;;21.58;69.05;94518.13;5056791;28;20212;-69
2023/07/31 00:44:05;;;;;;;4.78;4.47;;;;;;;21.59;69.29;94522.50;5056374;28;20197;-69
2023/07/31 00:47:13;;;;;;;5.00;4.60;;;;;;;21.61;69.96;94534.06;5056569;28;20282;-69
2023/07/31 00:50:23;;;;;;;5.13;4.72;;;;;;;21.59;70.56;94522.50;5103209;28;20223;-69
2023/07/31 00:53:27;;;;;;;7.53;4.78;;;;;;;21.56;70.03;94526.16;5115698;28;20219;-69
2023/07/31 00:56:33;;;;;;;5.40;5.00;;;;;;;21.57;69.87;94524.97;5115372;28;20219;-69
2023/07/31 00:59:37;;;;;;;5.43;5.03;;;;;;;21.58;71.13;94513.28;5115348;28;20184;-69
2023/07/31 01:02:42;;;;;;;5.90;5.50;;;;;;;21.58;71.09;94521.69;5114699;28;20187;-69
2023/07/31 01:05:50;;;;;;;6.72;6.22;;;;;;;21.55;70.18;94516.97;5114716;28;20199;-69
2023/07/31 01:12:18;;;;;;;8.32;7.72;;;;;;;21.45;70.17;94520.81;5114035;28;20204;-69
2023/07/31 01:15:26;;;;;;;8.55;7.95;;;;;;;21.43;69.90;94514.84;5114828;28;20199;-69
2023/07/31 01:18:35;;;;;;;8.93;8.23;;;;;;;21.44;70.68;94510.03;5115351;28;20204;-69
2023/07/31 01:21:41;;;;;;;10.10;9.30;;;;;;;21.39;70.08;94511.34;5114625;28;20231;-69
2023/07/31 01:24:50;;;;;;;9.90;9.10;;;;;;;21.38;70.09;94507.72;5115404;28;20240;-69
2023/07/31 01:27:29;;;;;;;9.93;9.13;;;;;;;21.35;70.25;94510.63;5114546;28;20223;-69
2023/07/31 01:30:03;;;;;;;10.82;9.88;;;;;;;21.31;70.73;94507.88;5115246;28;20215;-70
2023/07/31 01:32:30;;;;;;;11.80;10.80;;;;;;;21.29;70.77;94504.72;5114544;28;20611;-69
2023/07/31 01:35:01;;;;;;;12.60;11.60;;;;;;;21.25;70.63;94511.66;5115231;28;20192;-69
2023/07/31 01:37:30;;;;;;;13.23;12.13;;;;;;;21.25;70.98;94506.03;5114223;28;20223;-69
2023/07/31 01:39:58;;;;;;;12.80;11.80;;;;;;;21.24;70.80;94501.63;5115073;28;20235;-69
2023/07/31 01:42:28;;;;;;;13.63;12.43;;;;;;;21.20;71.56;94501.72;5115063;28;20184;-69
2023/07/31 01:44:56;;;;;;;14.07;12.85;;;;;;;21.24;71.50;94504.44;5118946;28;20187;-69
2023/07/31 01:47:24;;;;;;;13.77;12.68;;;;;;;21.19;71.75;94500.16;5118490;28;20184;-69
2023/07/31 01:49:52;;;;;;;15.27;13.98;;;;;;;21.19;72.09;94496.56;5117942;28;20289;-69
2023/07/31 01:52:19;;;;;;;14.55;13.35;;;;;;;21.16;71.70;94503.81;5117646;28;20199;-69
2023/07/31 01:54:47;;;;;;;14.77;13.50;;;;;;;21.15;72.16;94507.84;5118779;28;20211;-70
2023/07/31 01:57:17;;;;;;;14.55;13.32;;;;;;;21.15;71.86;94503.03;5117779;28;20204;-71
2023/07/31 01:59:47;;;;;;;15.40;14.05;;;;;;;21.19;72.02;94500.16;5118508;28;20179;-70
2023/07/31 02:02:15;;;;;;;15.07;13.77;;;;;;;21.20;71.86;94507.31;5118843;28;20199;-69
2023/07/31 02:04:43;;;;;;;14.73;13.45;;;;;;;21.21;72.18;94516.56;5118221;28;20180;-69
2023/07/31 02:07:10;;;;;;;14.27;13.10;;;;;;;21.24;72.09;94510.03;5117815;28;20199;-69
2023/07/31 02:09:40;;;;;;;16.17;14.77;;;;;;;21.22;72.30;94510.50;5117940;28;20668;-70
2023/07/31 02:12:09;;;;;;;14.93;13.43;;;;;;;21.21;72.41;94524.97;5117616;28;20290;-70
2023/07/31 02:14:37;;;;;;;14.90;13.70;;;;;;;21.21;72.37;94522.94;5118072;28;20188;-69
2023/07/31 02:17:07;;;;;;;15.40;14.02;;;;;;;21.22;72.62;94510.50;5117790;28;20207;-70
2023/07/31 02:19:35;;;;;;;15.57;14.27;;;;;;;21.25;71.96;94515.25;5117783;28;20218;-69
2023/07/31 02:22:05;;;;;;;14.57;13.38;;;;;;;21.29;72.07;94518.75;5118351;28;20198;-69
2023/07/31 02:24:33;;;;;;;15.60;14.30;;;;;;;21.33;72.07;94519.47;5116713;28;20223;-69
2023/07/31 02:27:03;;;;;;;15.38;14.07;;;;;;;21.38;72.36;94518.16;5117280;28;20203;-69
2023/07/31 02:29:31;;;;;;;15.43;14.13;;;;;;;21.42;72.83;94524.47;5117711;27;20200;-69
2023/07/31 02:31:59;;;;;;;15.07;13.77;;;;;;;21.41;72.13;94517.28;5117537;28;20200;-69
2023/07/31 02:34:35;;;;;;;14.85;13.63;;;;;;;21.42;71.88;94518.09;5116986;28;20205;-70
2023/07/31 02:37:06;;;;;;;15.68;14.35;;;;;;;21.42;72.19;94504.84;5117879;28;20200;-70
2023/07/31 02:39:34;;;;;;;15.43;14.13;;;;;;;21.42;71.68;94518.88;5116769;28;20198;-70
2023/07/31 02:42:05;;;;;;;15.07;13.88;;;;;;;21.43;71.70;94519.69;5116971;28;20211;-70
2023/07/31 02:44:36;;;;;;;15.45;14.05;;;;;;;21.43;71.86;94516.88;5116892;28;20286;-70
2023/07/31 02:47:04;;;;;;;14.90;13.60;;;;;;;21.43;71.34;94528.09;5117406;28;20208;-69
2023/07/31 02:49:34;;;;;;;15.00;13.80;;;;;;;21.44;71.15;94538.88;5117593;28;20195;-69
2023/07/31 02:52:02;;;;;;;15.95;14.55;;;;;;;21.44;71.27;94526.88;5117280;28;20202;-69
2023/07/31 02:54:28;;;;;;;14.85;13.65;;;;;;;21.43;70.93;94526.06;5117423;28;20196;-69
2023/07/31 02:56:57;;;;;;;15.88;14.50;;;;;;;21.44;71.16;94538.09;5117097;28;20210;-69
2023/07/31 02:59:25;;;;;;;14.85;13.65;;;;;;;21.47;70.93;94534.41;5116451;28;20623;-70
2023/07/31 03:01:53;;;;;;;14.85;13.65;;;;;;;21.46;70.71;94535.63;5116528;28;20192;-71
2023/07/31 03:04:21;;;;;;;15.07;13.68;;;;;;;21.45;71.09;94543.25;5117330;28;20199;-71
2023/07/31 03:06:52;;;;;;;15.50;14.10;;;;;;;21.45;71.15;94545.25;5117361;28;20184;-70
2023/07/31 03:09:21;;;;;;;16.48;14.98;;;;;;;21.46;71.30;94546.84;5117286;27;20237;-70
2023/07/31 03:11:51;;;;;;;15.18;13.98;;;;;;;21.48;71.96;94541.59;5115993;28;20204;-70
2023/07/31 03:14:22;;;;;;;16.42;14.93;;;;;;;21.49;71.74;94540.34;5116183;28;20195;-70
2023/07/31 03:16:52;;;;;;;16.83;15.43;;;;;;;21.51;71.97;94540.72;5115967;28;20219;-70
2023/07/31 03:19:20;;;;;;;17.02;15.52;;;;;;;21.52;71.47;94547.91;5115806;28;20233;-70
2023/07/31 03:21:53;;;;;;;16.65;15.27;;;;;;;21.52;71.33;94551.50;5116064;28;20195;-70
2023/07/31 03:24:24;;;;;;;15.98;14.52;;;;;;;21.55;71.32;94547.81;5115558;28;20624;-71
2023/07/31 03:26:52;;;;;;;16.13;14.73;;;;;;;21.55;71.51;94547.81;5116645;28;20199;-70
2023/07/31 03:29:20;;;;;;;15.95;14.65;;;;;;;21.55;71.56;94550.63;5115659;28;20540;-71
2023/07/31 03:31:48;;;;;;;16.17;14.77;;;;;;;21.56;71.38;94557.81;5115506;28;20199;-70
2023/07/31 03:34:18;;;;;;;16.20;14.80;;;;;;;21.54;71.20;94560.28;5116100;28;20196;-69
2023/07/31 03:36:46;;;;;;;17.20;15.77;;;;;;;21.52;71.00;94551.50;5116437;28;20290;-69
2023/07/31 03:39:18;;;;;;;16.83;15.32;;;;;;;21.50;71.15;94558.78;5115573;28;20200;-69
2023/07/31 03:41:48;;;;;;;17.42;15.98;;;;;;;21.48;70.80;94562.03;5115513;28;20202;-70
2023/07/31 03:44:17;;;;;;;17.85;16.05;;;;;;;21.49;70.84;94571.22;5116796;28;20195;-69
2023/07/31 03:46:45;;;;;;;18.88;17.08;;;;;;;21.48;70.79;94575.25;5116155;28;20264;-69
2023/07/31 03:49:13;;;;;;;18.58;16.80;;;;;;;21.48;70.90;94564.81;5115427;28;20200;-70
2023/07/31 03:51:42;;;;;;;17.75;16.10;;;;;;;21.48;71.03;94572.44;5115391;28;20542;-69
2023/07/31 03:54:09;;;;;;;18.92;17.13;;;;;;;21.46;70.88;94567.28;5098555;28;20196;-70
2023/07/31 03:56:42;;;;;;;17.67;16.08;;;;;;;21.45;70.93;94578.94;5115609;28;20214;-71
2023/07/31 03:59:11;;;;;;;19.17;17.40;;;;;;;21.45;70.67;94578.94;5115558;28;20607;-67
2023/07/31 04:01:41;;;;;;;18.95;17.30;;;;;;;21.44;70.93;94580.94;5115534;28;20188;-68
2023/07/31 04:04:18;;;;;;;18.83;17.02;;;;;;;21.45;70.74;94579.72;5115424;28;20187;-69
2023/07/31 04:06:46;;;;;;;18.25;16.55;;;;;;;21.48;70.78;94584.47;5114759;28;20252;-69
2023/07/31 04:09:14;;;;;;;18.42;16.73;;;;;;;21.49;70.36;94590.84;5115291;28;20199;-69
2023/07/31 04:11:43;;;;;;;18.30;16.67;;;;;;;21.49;70.71;94593.66;5115222;28;20264;-69
2023/07/31 04:14:12;;;;;;;18.73;17.02;;;;;;;21.48;70.50;94587.25;5115955;28;20198;-69
2023/07/31 04:16:42;;;;;;;18.13;16.48;;;;;;;21.49;70.76;94586.03;5114930;28;20218;-69
2023/07/31 04:19:11;;;;;;;19.20;17.40;;;;;;;21.51;71.00;94594.81;5114752;28;20195;-68
2023/07/31 04:21:39;;;;;;;19.02;17.23;;;;;;;21.51;70.88;94586.41;5114996;28;20223;-69
2023/07/31 04:24:07;;;;;;;19.88;17.98;;;;;;;21.56;70.95;94585.88;5115416;28;20238;-68
2023/07/31 04:26:36;;;;;;;20.50;18.63;;;;;;;21.63;70.31;94593.34;5115137;28;20207;-68
2023/07/31 04:29:13;;;;;;;20.02;18.23;;;;;;;21.63;70.45;94601.75;5115446;28;20211;-69
2023/07/31 04:31:42;;;;;;;17.83;16.20;;;;;;;21.62;70.34;94600.19;5114966;28;20230;-69
2023/07/31 04:34:13;;;;;;;17.90;16.10;;;;;;;21.65;69.58;94601.34;5114759;28;20203;-69
2023/07/31 04:36:42;;;;;;;18.42;16.83;;;;;;;21.63;69.20;94602.53;5115774;28;20187;-69
2023/07/31 04:39:12;;;;;;;19.00;17.30;;;;;;;21.65;69.35;94598.53;5114698;28;20640;-69
2023/07/31 04:41:41;;;;;;;18.58;16.90;;;;;;;21.60;69.43;94592.19;5114498;28;20192;-69
2023/07/31 04:44:11;;;;;;;17.90;16.30;;;;;;;21.59;69.57;94596.22;5115018;28;20191;-69
2023/07/31 04:46:42;;;;;;;18.65;16.95;;;;;;;21.56;69.24;94593.50;5114893;28;20237;-69
2023/07/31 04:49:11;;;;;;;18.25;16.60;;;;;;;21.50;69.62;94593.25;5114817;28;20209;-69
2023/07/31 04:51:42;;;;;;;19.55;17.73;;;;;;;21.48;69.34;94589.28;5114391;28;20210;-68
2023/07/31 04:54:14;;;;;;;18.95;17.15;;;;;;;21.48;69.70;94592.88;5114888;28;20204;-69
2023/07/31 04:56:42;;;;;;;18.23;16.42;;;;;;;21.48;69.38;94581.66;5114431;28;20237;-69
2023/07/31 04:59:16;;;;;;;17.70;16.15;;;;;;;21.48;70.00;94586.47;5114477;28;20204;-68
2023/07/31 05:01:45;;;;;;;18.13;16.42;;;;;;;21.47;70.16;94582.09;5114658;28;20204;-68
2023/07/31 05:04:16;;;;;;;19.02;17.33;;;;;;;21.50;69.98;94584.84;5114745;28;20204;-68
2023/07/31 05:06:46;;;;;;;17.48;15.77;;;;;;;21.51;69.91;94583.59;5114764;28;20203;-68
2023/07/31 05:09:14;;;;;;;16.48;14.93;;;;;;;21.53;69.28;94585.94;5114487;28;20200;-68
2023/07/31 05:11:42;;;;;;;16.95;15.45;;;;;;;21.53;69.31;94580.34;5114175;28;20192;-69
2023/07/31 05:14:15;;;;;;;16.48;15.05;;;;;;;21.55;69.13;94583.50;5114482;28;20219;-69
2023/07/31 05:16:42;;;;;;;17.23;15.55;;;;;;;21.58;69.05;94575.00;5114585;28;20260;-69
2023/07/31 05:19:12;;;;;;;16.40;14.90;;;;;;;21.58;69.04;94588.25;5118440;28;20207;-69
2023/07/31 05:21:42;;;;;;;15.55;14.15;;;;;;;21.54;68.70;94579.13;5118449;28;20206;-69
2023/07/31 05:24:11;;;;;;;14.68;13.38;;;;;;;21.56;68.50;94583.06;5118135;28;20243;-69
2023/07/31 05:26:41;;;;;;;15.38;13.98;;;;;;;21.57;68.78;94581.06;5118965;28;20513;-69
2023/07/31 05:29:10;;;;;;;12.65;11.65;;;;;;;21.55;68.25;94584.31;5118409;28;20207;-69
2023/07/31 05:31:42;;;;;;;12.20;11.20;;;;;;;21.54;67.87;94579.91;5118258;28;20280;-69
2023/07/31 05:34:10;;;;;;;12.65;11.65;;;;;;;21.62;68.39;94594.56;5117842;28;20253;-69
2023/07/31 05:36:37;;;;;;;11.90;10.90;;;;;;;21.65;68.02;94582.47;5118148;28;20222;-69
2023/07/31 05:39:08;;;;;;;11.63;10.63;;;;;;;21.71;67.51;94593.97;5117716;28;20219;-69
2023/07/31 05:41:37;;;;;;;10.52;9.65;;;;;;;21.74;67.02;94581.88;5117983;28;20180;-69
2023/07/31 05:44:05;;;;;;;9.95;9.05;;;;;;;21.77;66.30;94578.97;5118163;28;20206;-68
2023/07/31 05:46:33;;;;;;;10.13;9.23;;;;;;;21.75;66.06;94577.81;5117684;28;20191;-69
2023/07/31 05:49:05;;;;;;;9.13;8.43;;;;;;;21.75;65.90;94584.25;5118216;28;20188;-69
2023/07/31 05:51:33;;;;;;;9.25;8.45;;;;;;;21.71;65.56;94574.31;5117854;28;20196;-69
2023/07/31 05:54:00;;;;;;;8.73;7.88;;;;;;;21.69;64.71;94588.00;5117575;28;20614;-69
2023/07/31 05:56:28;;;;;;;7.28;6.68;;;;;;;21.68;64.22;94583.59;5117405;28;20200;-69
2023/07/31 05:58:59;;;;;;;7.53;6.88;;;;;;;21.69;63.98;94583.19;5117379;28;20650;-68
2023/07/31 06:01:26;;;;;;;6.63;6.13;;;;;;;21.73;63.66;94588.72;5117396;28;20196;-68
2023/07/31 06:03:54;;;;;;;6.75;6.07;;;;;;;21.75;63.18;94591.84;5118203;28;20208;-68
2023/07/31 06:06:27;;;;;;;9.32;5.38;;;;;;;21.75;62.54;94587.06;5117731;28;20195;-68
2023/07/31 06:08:57;;;;;;;6.30;5.80;;;;;;;21.79;62.54;94598.19;5117846;28;20203;-68
2023/07/31 06:11:27;;;;;;;5.57;5.18;;;;;;;21.83;62.35;94596.88;5117242;28;20642;-68
2023/07/31 06:13:57;;;;;;;6.53;5.75;;;;;;;21.92;62.18;94590.66;5118223;28;20202;-68
2023/07/31 06:16:27;;;;;;;6.22;5.72;;;;;;;21.95;61.74;94598.19;5117799;28;20199;-68
2023/07/31 06:18:54;;;;;;;5.05;4.70;;;;;;;21.95;61.79;94606.63;5117352;28;20227;-68
2023/07/31 06:21:23;;;;;;;5.82;5.40;;;;;;;21.97;61.63;94603.38;5117279;28;20206;-69
2023/07/31 06:23:56;;;;;;;5.20;4.72;;;;;;;21.97;61.79;94604.19;5116788;28;20246;-68
2023/07/31 06:26:23;;;;;;;5.25;4.80;;;;;;;21.99;61.62;94606.53;5117159;28;20199;-68
2023/07/31 06:28:55;;;;;;;5.30;4.80;;;;;;;21.98;61.21;94602.16;5116236;28;20198;-68
2023/07/31 06:31:23;;;;;;;5.50;5.10;;;;;;;21.98;61.26;94602.94;5117140;28;20255;-68
2023/07/31 06:33:53;;;;;;;6.03;5.63;;;;;;;22.05;62.09;94610.41;5117102;28;20188;-69
2023/07/31 06:36:21;;;;;;;5.47;5.07;;;;;;;22.09;61.57;94611.09;5117112;28;20518;-67
2023/07/31 06:38:49;;;;;;;5.53;5.03;;;;;;;22.16;61.72;94610.97;5116752;28;20269;-67
2023/07/31 06:41:20;;;;;;;5.18;4.78;;;;;;;22.22;61.84;94622.44;5116785;28;20196;-67
2023/07/31 06:43:49;;;;;;;5.07;4.68;;;;;;;22.22;61.61;94612.03;5117762;28;20282;-67
2023/07/31 06:46:19;;;;;;;5.63;5.18;;;;;;;22.28;61.44;94621.47;5116488;28;20685;-67
2023/07/31 06:48:47;;;;;;;4.85;4.45;;;;;;;22.39;61.44;94615.59;5116645;28;20617;-67
2023/07/31 06:51:16;;;;;;;5.38;4.88;;;;;;;22.49;61.13;94617.34;5116487;28;20204;-67
2023/07/31 06:53:45;;;;;;;5.40;4.35;;;;;;;22.56;60.34;94619.97;5116739;28;20223;-67
2023/07/31 06:56:15;;;;;;;5.03;4.60;;;;;;;22.52;60.28;94608.03;5117015;28;20248;-67
2023/07/31 06:58:49;;;;;;;4.85;4.22;;;;;;;22.50;60.16;94612.50;5117108;28;20225;-67
2023/07/31 07:01:16;;;;;;;4.57;4.28;;;;;;;22.48;60.33;94612.97;5116714;28;20234;-68
2023/07/31 07:03:43;;;;;;;4.72;4.32;;;;;;;22.39;59.98;94603.56;5117471;28;20203;-67
2023/07/31 07:06:11;;;;;;;4.43;4.03;;;;;;;22.25;60.33;94599.88;5117543;28;20196;-67
2023/07/31 07:08:42;;;;;;;4.80;4.00;;;;;;;22.16;60.77;94594.13;5117216;28;20252;-68
2023/07/31 07:11:11;;;;;;;4.85;4.30;;;;;;;22.16;61.34;94601.75;5117347;28;20184;-68
2023/07/31 07:13:39;;;;;;;3.92;3.63;;;;;;;22.10;61.42;94605.03;5116315;28;20206;-67
2023/07/31 07:16:13;;;;;;;4.07;3.75;;;;;;;22.03;61.53;94599.59;5116418;28;20208;-67
2023/07/31 07:18:41;;;;;;;4.00;3.70;;;;;;;22.04;61.92;94604.00;5116681;28;20647;-67
2023/07/31 07:21:09;;;;;;;4.03;3.72;;;;;;;22.04;60.93;94614.41;5116683;28;20184;-67
2023/07/31 07:23:37;;;;;;;4.10;3.80;;;;;;;21.99;60.28;94603.72;5115575;28;20247;-67
2023/07/31 07:26:06;;;;;;;3.85;3.55;;;;;;;21.95;59.46;94608.66;5116748;28;20243;-67
2023/07/31 07:28:34;;;;;;;4.63;3.50;;;;;;;21.92;60.36;94613.09;5116530;28;20207;-67
2023/07/31 07:31:04;;;;;;;4.20;3.50;;;;;;;22.03;61.12;94596.00;5116844;28;20184;-67
2023/07/31 07:33:34;;;;;;;3.83;3.53;;;;;;;22.10;60.06;94601.44;5116884;28;20607;-67
2023/07/31 07:36:02;;;;;;;3.75;3.45;;;;;;;22.16;61.21;94596.13;5116698;28;20180;-67
2023/07/31 07:38:31;;;;;;;4.20;3.80;;;;;;;22.27;60.05;94599.47;5116781;28;20208;-67
2023/07/31 07:40:59;;;;;;;3.85;3.33;;;;;;;22.32;59.83;94610.16;5114734;28;20196;-67
2023/07/31 07:43:27;;;;;;;3.92;3.63;;;;;;;22.36;60.30;94602.41;5115704;28;20272;-67
2023/07/31 07:45:58;;;;;;;3.58;3.28;;;;;;;22.46;59.85;94609.00;5116977;28;20199;-67
2023/07/31 07:48:26;;;;;;;3.22;3.03;;;;;;;22.41;58.14;94610.34;5115791;28;20199;-67
2023/07/31 07:51:00;;;;;;;3.40;3.00;;;;;;;22.42;59.08;94609.09;5116203;28;20180;-67
2023/07/31 07:53:28;;;;;;;3.40;3.10;;;;;;;22.41;58.63;94621.56;5115972;28;20195;-67
2023/07/31 07:55:56;;;;;;;3.85;3.60;;;;;;;22.35;58.21;94621.31;5116316;28;20191;-67
2023/07/31 07:58:24;;;;;;;3.97;3.67;;;;;;;22.31;57.83;94617.78;5116258;28;20219;-67
2023/07/31 08:00:54;;;;;;;4.20;3.90;;;;;;;22.24;58.56;94623.59;5115504;28;20198;-67
2023/07/31 08:03:21;;;;;;;4.40;4.03;;;;;;;22.20;58.79;94620.09;5115109;28;20195;-67
2023/07/31 08:05:50;;;;;;;3.78;3.47;;;;;;;22.20;59.02;94613.69;5115197;28;20202;-67
2023/07/31 08:08:25;;;;;;;4.07;3.67;;;;;;;22.22;58.44;94616.81;5115852;28;20184;-67
2023/07/31 08:10:53;;;;;;;4.68;3.70;;;;;;;22.24;58.30;94617.97;5115280;28;20207;-67
2023/07/31 08:13:26;;;;;;;3.47;3.28;;;;;;;22.26;57.96;94614.72;5115630;28;20223;-71
2023/07/31 08:15:54;;;;;;;3.85;3.50;;;;;;;22.26;58.73;94615.53;5115969;28;20557;-67
2023/07/31 08:18:23;;;;;;;3.60;3.30;;;;;;;22.35;59.12;94617.72;5115656;28;20226;-67
2023/07/31 08:20:52;;;;;;;4.57;4.18;;;;;;;22.47;58.83;94616.97;5115681;28;20620;-68
2023/07/31 08:23:24;;;;;;;4.43;4.03;;;;;;;22.56;57.83;94616.38;5114341;28;20232;-67
2023/07/31 08:25:54;;;;;;;4.55;3.83;;;;;;;22.61;56.53;94613.00;5115085;28;20191;-67
2023/07/31 08:28:22;;;;;;;3.60;3.40;;;;;;;22.59;56.80;94613.47;5114846;28;20208;-67
2023/07/31 08:30:51;;;;;;;3.92;3.63;;;;;;;22.65;57.43;94618.53;5115776;28;20199;-67
2023/07/31 08:33:18;;;;;;;3.60;3.28;;;;;;;22.76;57.46;94619.03;5115485;28;20561;-67
2023/07/31 08:35:46;;;;;;;4.90;4.50;;;;;;;22.83;56.69;94616.03;5115244;28;20203;-67
2023/07/31 08:38:14;;;;;;;3.85;3.55;;;;;;;22.93;55.88;94617.78;5115764;28;20223;-67
2023/07/31 08:40:43;;;;;;;3.75;3.45;;;;;;;23.02;57.26;94603.09;5114994;28;20195;-67
2023/07/31 08:43:13;;;;;;;4.22;3.90;;;;;;;23.12;56.77;94616.06;5115723;28;20184;-67
2023/07/31 08:45:45;;;;;;;3.55;3.25;;;;;;;23.11;54.67;94613.69;5115602;28;20176;-67
2023/07/31 08:48:16;;;;;;;3.40;3.10;;;;;;;23.06;55.54;94606.59;5115523;28;20196;-67
2023/07/31 08:50:48;;;;;;;3.97;3.67;;;;;;;23.09;54.49;94607.72;5114516;28;20196;-67
2023/07/31 08:53:19;;;;;;;3.40;3.20;;;;;;;23.06;55.46;94610.19;5117953;28;20200;-67
2023/07/31 08:55:50;;;;;;;4.00;3.40;;;;;;;23.09;53.38;94608.50;5119886;28;20191;-67
2023/07/31 08:58:18;;;;;;;3.67;3.38;;;;;;;23.07;54.42;94608.19;5119338;28;20215;-67
2023/07/31 09:00:50;;;;;;;3.45;3.20;;;;;;;23.10;53.76;94612.13;5119729;28;20611;-67
2023/07/31 09:03:19;;;;;;;3.17;2.95;;;;;;;23.18;53.25;94610.69;5119760;28;20295;-67
2023/07/31 09:05:49;;;;;;;3.17;2.95;;;;;;;23.28;53.46;94609.59;5118651;28;20569;-67
2023/07/31 09:08:24;;;;;;;3.53;3.25;;;;;;;23.35;52.21;94602.94;5119268;28;20203;-67
2023/07/31 09:11:03;;;;;;;3.40;3.20;;;;;;;23.45;53.96;94602.63;5118426;28;20205;-67
2023/07/31 09:13:32;;;;;;;4.00;3.70;;;;;;;23.65;53.70;94605.25;5118591;28;20197;-67
2023/07/31 09:16:01;;;;;;;3.60;3.30;;;;;;;23.68;53.41;94597.97;5118948;28;20203;-67
2023/07/31 09:18:31;;;;;;;3.85;3.42;;;;;;;23.81;53.38;94586.69;5118959;28;20234;-68
2023/07/31 09:21:07;;;;;;;3.35;3.13;;;;;;;23.89;53.58;94588.03;5118245;28;20622;-67
2023/07/31 09:23:47;;;;;;;3.70;3.40;;;;;;;23.95;53.93;94600.31;5118089;28;20247;-68
2023/07/31 09:26:35;;;;;;;3.70;3.08;;;;;;;24.07;53.36;94585.44;5119716;28;20248;-67
2023/07/31 09:29:09;;;;;;;3.65;3.35;;;;;;;24.18;52.95;94585.09;5118162;28;20198;-68
2023/07/31 09:31:44;;;;;;;4.10;3.50;;;;;;;24.29;53.93;94576.28;5118365;28;20242;-67
2023/07/31 09:34:13;;;;;;;4.00;3.58;;;;;;;24.42;52.75;94577.06;5118092;28;20654;-67
2023/07/31 09:36:42;;;;;;;3.83;3.38;;;;;;;24.47;52.36;94577.28;5118223;28;20612;-67
2023/07/31 09:39:13;;;;;;;3.70;3.45;;;;;;;24.45;51.73;94579.75;5118110;28;20276;-67
2023/07/31 09:41:50;;;;;;;4.40;3.40;;;;;;;24.59;51.66;94580.53;5117720;28;20248;-67
2023/07/31 09:44:20;;;;;;;3.53;3.28;;;;;;;24.80;50.27;94568.50;5117926;28;20192;-67
2023/07/31 09:46:48;;;;;;;3.63;3.33;;;;;;;24.83;50.30;94578.84;5118098;28;20256;-67
2023/07/31 09:49:16;;;;;;;3.80;3.50;;;;;;;24.69;49.64;94577.34;5117661;28;20615;-67
2023/07/31 09:51:47;;;;;;;3.40;3.20;;;;;;;24.72;50.19;94567.94;5117948;28;20200;-67
2023/07/31 09:54:19;;;;;;;4.30;3.40;;;;;;;24.85;51.47;94565.06;5117841;28;20188;-67
2023/07/31 09:56:50;;;;;;;4.10;3.05;;;;;;;24.83;50.79;94572.41;5117782;28;20256;-67
2023/07/31 09:59:19;;;;;;;3.35;3.15;;;;;;;24.74;51.07;94562.63;5117707;28;20220;-67
2023/07/31 10:01:50;;;;;;;2.95;2.70;;;;;;;24.79;50.13;94569.72;5100735;28;20631;-67
2023/07/31 10:04:20;;;;;;;3.20;3.00;;;;;;;24.89;50.86;94557.28;5117302;28;20191;-67
2023/07/31 10:06:51;;;;;;;3.00;2.67;;;;;;;24.98;49.39;94562.19;5117507;28;20200;-67
2023/07/31 10:09:19;;;;;;;2.97;2.78;;;;;;;24.93;48.77;94552.28;5117738;28;20196;-67
2023/07/31 10:11:55;;;;;;;4.03;2.95;;;;;;;25.02;49.42;94551.56;5117251;28;20264;-67
2023/07/31 10:14:25;;;;;;;3.20;2.90;;;;;;;25.18;47.39;94559.06;5117833;28;20252;-67
2023/07/31 10:16:54;;;;;;;2.92;2.72;;;;;;;25.34;47.30;94561.66;5117417;28;20200;-67
2023/07/31 10:19:21;;;;;;;2.70;2.50;;;;;;;25.40;47.93;94557.00;5117436;28;20646;-67
2023/07/31 10:21:49;;;;;;;3.28;2.80;;;;;;;25.68;48.10;94562.81;5117448;28;20206;-67
2023/07/31 10:24:18;;;;;;;3.10;2.80;;;;;;;25.87;45.99;94563.69;5117122;28;20231;-67
2023/07/31 10:26:47;;;;;;;3.40;3.10;;;;;;;25.93;46.74;94553.38;5118247;28;20188;-67
2023/07/31 10:29:17;;;;;;;2.80;2.60;;;;;;;25.99;45.12;94545.03;5118043;28;20207;-67
2023/07/31 10:31:47;;;;;;;2.85;2.65;;;;;;;26.03;46.21;94557.75;5118151;28;20194;-67
2023/07/31 10:34:15;;;;;;;2.75;2.55;;;;;;;26.06;45.23;94550.41;5117642;28;20192;-67
2023/07/31 10:36:47;;;;;;;3.60;2.75;;;;;;;26.16;45.46;94549.19;5117105;28;20195;-67
2023/07/31 10:39:38;;;;;;;3.40;3.10;;;;;;;26.26;43.98;94530.22;5117113;28;20311;-67
2023/07/31 10:42:17;;;;;;;2.80;2.60;;;;;;;26.35;45.43;94538.69;5116863;28;20203;-67
2023/07/31 10:45:00;;;;;;;3.42;2.75;;;;;;;26.42;45.11;94542.00;5118049;28;20179;-67
2023/07/31 10:47:27;;;;;;;2.35;2.22;;;;;;;26.53;43.37;94529.47;5117424;28;20241;-67
2023/07/31 10:50:17;;;;;;;2.90;2.70;;;;;;;26.64;42.12;94527.75;5117941;28;20202;-67
2023/07/31 10:52:48;;;;;;;3.10;2.80;;;;;;;26.69;42.16;94526.34;5116339;28;20203;-67
2023/07/31 10:55:31;;;;;;;3.17;2.97;;;;;;;26.78;42.04;94529.16;5116997;28;20260;-67
2023/07/31 10:57:59;;;;;;;2.58;2.38;;;;;;;26.86;42.77;94535.28;5117697;28;20248;-67
2023/07/31 11:00:30;;;;;;;2.72;2.53;;;;;;;26.93;43.40;94531.38;5117409;28;20204;-67
2023/07/31 11:03:00;;;;;;;3.00;2.70;;;;;;;27.02;42.39;94537.03;5117207;28;20615;-67
2023/07/31 11:05:53;;;;;;;2.50;2.30;;;;;;;26.97;40.98;94527.09;5117374;28;20195;-67
2023/07/31 11:08:24;;;;;;;2.50;2.35;;;;;;;26.98;42.64;94519.41;5117357;28;20192;-67
2023/07/31 11:11:19;;;;;;;2.60;2.40;;;;;;;27.14;42.06;94516.28;5116654;28;20196;-67
2023/07/31 11:14:24;;;;;;;2.08;1.98;;;;;;;27.17;40.06;94520.22;5058049;28;20240;-67
2023/07/31 11:17:28;;;;;;;2.63;2.42;;;;;;;26.91;41.78;94526.19;5058055;28;20211;-67
2023/07/31 11:20:32;;;;;;;2.75;2.20;;;;;;;26.74;41.66;94522.88;5058346;28;20323;-67
2023/07/31 11:23:37;;;;;;;2.67;2.47;;;;;;;26.60;41.32;94509.38;5074344;28;20224;-67
2023/07/31 11:26:45;;;;;;;2.97;2.70;;;;;;;26.66;42.41;94512.38;5057950;28;20205;-67
2023/07/31 11:29:49;;;;;;;3.05;2.85;;;;;;;26.91;41.56;94511.22;5057937;28;20200;-67
2023/07/31 11:32:54;;;;;;;4.35;3.00;;;;;;;27.16;41.46;94510.91;5101276;28;20768;-67
2023/07/31 11:35:59;;;;;;;2.97;2.78;;;;;;;26.93;41.52;94529.31;5116958;28;20184;-67
2023/07/31 11:39:08;;;;;;;3.53;3.33;;;;;;;26.79;42.21;94524.28;5116364;28;20207;-67
2023/07/31 11:42:15;;;;;;;3.20;3.00;;;;;;;26.82;41.79;94517.69;5115698;28;20227;-67
2023/07/31 11:45:19;;;;;;;3.78;3.47;;;;;;;27.01;42.25;94522.06;5115655;28;20676;-67
2023/07/31 11:48:23;;;;;;;3.42;3.13;;;;;;;27.05;41.06;94507.75;5115514;28;20195;-67
2023/07/31 11:51:30;;;;;;;3.17;2.88;;;;;;;26.89;41.11;94504.00;5116679;28;20203;-67
2023/07/31 11:54:35;;;;;;;3.80;3.50;;;;;;;27.08;41.67;94503.97;5115924;28;20335;-67
2023/07/31 11:57:44;;;;;;;3.40;3.10;;;;;;;27.25;41.67;94505.25;5116549;28;20195;-67
2023/07/31 12:00:49;;;;;;;4.00;3.67;;;;;;;27.45;40.84;94495.41;5115360;28;20211;-67
2023/07/31 12:03:53;;;;;;;4.00;3.63;;;;;;;27.43;41.00;94498.75;5115931;28;20634;-67
2023/07/31 12:06:58;;;;;;;5.05;4.65;;;;;;;27.46;40.77;94499.84;5116347;28;20176;-67
2023/07/31 12:10:04;;;;;;;4.25;3.90;;;;;;;27.36;40.54;94493.41;5116290;28;20192;-67